Time;durP1;ratioP1;P1;durP2;ratioP2;P2;SDS_P1;SDS_P2;PMS_P1;PMS_P2;Temp;Humidity;BMP_temperature;BMP_pressure;BME280_temperature;BME280_humidity;BME280_pressure;Samples;Min_cycle;Max_cycle;Signal;HPM_P1;HPM_P2
2023/12/20 00:02:02;;;;;;;;;;;;;;;;;;5074207;28;19935;-21
2023/12/20 00:04:28;;;;;;;;;;;;;;;;;;5075086;28;19928;-21
2023/12/20 00:06:54;;;;;;;;;;;;;;;;;;5075187;28;19916;-22
2023/12/20 00:09:20;;;;;;;;;;;;;;;;;;5075149;28;19908;-23
2023/12/20 00:11:46;;;;;;;;;;;;;;;;;;5075340;28;19912;-21
2023/12/20 00:14:12;;;;;;;;;;;;;;;;;;5075346;28;19909;-20
2023/12/20 00:16:38;;;;;;;;;;;;;;;;;;5074993;28;19916;-20
2023/12/20 00:19:04;;;;;;;;;;;;;;;;;;5075096;28;19916;-19
2023/12/20 00:21:30;;;;;;;;;;;;;;;;;;5075307;28;19908;-19
2023/12/20 00:23:56;;;;;;;;;;;;;;;;;;5074844;28;20243;-23
2023/12/20 00:26:22;;;;;;;;;;;;;;;;;;5075236;28;19909;-21
2023/12/20 00:28:48;;;;;;;;;;;;;;;;;;5074983;28;19959;-21
2023/12/20 00:31:14;;;;;;;;;;;;;;;;;;5075204;28;19919;-21
2023/12/20 00:33:43;;;;;;;;;;;;;;;;;;5074801;28;19909;-21
2023/12/20 00:36:09;;;;;;;;;;;;;;;;;;5074842;28;20412;-22
2023/12/20 00:38:35;;;;;;;;;;;;;;;;;;5074605;28;20355;-21
2023/12/20 00:41:01;;;;;;;;;;;;;;;;;;5074726;28;19909;-21
2023/12/20 00:43:27;;;;;;;;;;;;;;;;;;5074697;28;20004;-20
2023/12/20 00:45:53;;;;;;;;;;;;;;;;;;5074999;28;19908;-20
2023/12/20 00:48:19;;;;;;;;;;;;;;;;;;5074702;28;19919;-21
2023/12/20 00:50:45;;;;;;;;;;;;;;;;;;5074272;28;20225;-22
2023/12/20 00:53:11;;;;;;;;;;;;;;;;;;5074553;28;19908;-22
2023/12/20 00:55:37;;;;;;;;;;;;;;;;;;5073583;28;19912;-21
2023/12/20 00:58:03;;;;;;;;;;;;;;;;;;5074790;28;19920;-19
2023/12/20 01:00:29;;;;;;;;;;;;;;;;;;5074575;28;20374;-20
2023/12/20 01:02:55;;;;;;;;;;;;;;;;;;5074260;28;19920;-22
2023/12/20 01:05:24;;;;;;;;;;;;;;;;;;5074801;28;19909;-22
2023/12/20 01:07:50;;;;;;;;;;;;;;;;;;5074567;28;19920;-21
2023/12/20 01:10:17;;;;;;;;;;;;;;;;;;5074485;28;19908;-21
2023/12/20 01:12:43;;;;;;;;;;;;;;;;;;5074575;28;19915;-22
2023/12/20 01:15:09;;;;;;;;;;;;;;;;;;5074661;28;19908;-20
2023/12/20 01:17:35;;;;;;;;;;;;;;;;;;5073294;28;19912;-20
2023/12/20 01:20:01;;;;;;;;;;;;;;;;;;5074664;28;20255;-22
2023/12/20 01:22:26;;;;;;;;;;;;;;;;;;5074621;28;19916;-21
2023/12/20 01:24:53;;;;;;;;;;;;;;;;;;5074353;28;19908;-21
2023/12/20 01:27:19;;;;;;;;;;;;;;;;;;5074204;28;19908;-21
2023/12/20 01:29:44;;;;;;;;;;;;;;;;;;5074548;28;20350;-22
2023/12/20 01:32:10;;;;;;;;;;;;;;;;;;5074240;28;19916;-21
2023/12/20 01:34:36;;;;;;;;;;;;;;;;;;5074296;28;19998;-20
2023/12/20 01:37:03;;;;;;;;;;;;;;;;;;5074174;28;19969;-22
2023/12/20 01:39:29;;;;;;;;;;;;;;;;;;5074216;28;19950;-23
2023/12/20 01:41:55;;;;;;;;;;;;;;;;;;5073216;28;19912;-23
2023/12/20 01:44:21;;;;;;;;;;;;;;;;;;5073243;28;19966;-21
2023/12/20 01:46:47;;;;;;;;;;;;;;;;;;5074488;28;19924;-21
2023/12/20 01:49:13;;;;;;;;;;;;;;;;;;5074140;28;19908;-20
2023/12/20 01:51:40;;;;;;;;;;;;;;;;;;5074347;28;20307;-20
2023/12/20 01:54:06;;;;;;;;;;;;;;;;;;5074005;28;19909;-20
2023/12/20 01:56:32;;;;;;;;;;;;;;;;;;5074039;28;20022;-21
2023/12/20 01:58:58;;;;;;;;;;;;;;;;;;5074325;28;20375;-21
2023/12/20 02:01:23;;;;;;;;;;;;;;;;;;5074070;28;20366;-22
2023/12/20 02:03:49;;;;;;;;;;;;;;;;;;5076106;28;20324;-22
2023/12/20 02:06:15;;;;;;;;;;;;;;;;;;5077526;28;19909;-21
2023/12/20 02:08:42;;;;;;;;;;;;;;;;;;5076447;28;19966;-20
2023/12/20 02:11:07;;;;;;;;;;;;;;;;;;5076458;28;19912;-22
2023/12/20 02:13:33;;;;;;;;;;;;;;;;;;5077291;28;20004;-21
2023/12/20 02:15:59;;;;;;;;;;;;;;;;;;5077565;28;19909;-21
2023/12/20 02:18:25;;;;;;;;;;;;;;;;;;5076222;28;19978;-19
2023/12/20 02:20:51;;;;;;;;;;;;;;;;;;5077285;28;19908;-21
2023/12/20 02:23:17;;;;;;;;;;;;;;;;;;5077194;28;19951;-21
2023/12/20 02:25:43;;;;;;;;;;;;;;;;;;5077154;28;20021;-21
2023/12/20 02:28:09;;;;;;;;;;;;;;;;;;5077404;28;19909;-21
2023/12/20 02:30:35;;;;;;;;;;;;;;;;;;5077291;28;19915;-22
2023/12/20 02:33:01;;;;;;;;;;;;;;;;;;5076967;28;19921;-22
2023/12/20 02:35:27;;;;;;;;;;;;;;;;;;5076960;28;19913;-20
2023/12/20 02:37:53;;;;;;;;;;;;;;;;;;5076844;28;20251;-21
2023/12/20 02:40:19;;;;;;;;;;;;;;;;;;5076859;28;19915;-21
2023/12/20 02:42:45;;;;;;;;;;;;;;;;;;5077051;28;19908;-21
2023/12/20 02:45:11;;;;;;;;;;;;;;;;;;5076852;28;19985;-20
2023/12/20 02:47:37;;;;;;;;;;;;;;;;;;5076736;28;20084;-20
2023/12/20 02:50:03;;;;;;;;;;;;;;;;;;5076755;28;19995;-19
2023/12/20 02:52:29;;;;;;;;;;;;;;;;;;5075628;28;20007;-22
2023/12/20 02:54:55;;;;;;;;;;;;;;;;;;5076941;28;19965;-21
2023/12/20 02:57:21;;;;;;;;;;;;;;;;;;5076565;28;20366;-20
2023/12/20 02:59:47;;;;;;;;;;;;;;;;;;5075648;28;20351;-20
2023/12/20 03:02:13;;;;;;;;;;;;;;;;;;5076397;28;19987;-21
2023/12/20 03:04:39;;;;;;;;;;;;;;;;;;5076244;28;19920;-21
2023/12/20 03:07:05;;;;;;;;;;;;;;;;;;5076341;28;20343;-23
2023/12/20 03:09:30;;;;;;;;;;;;;;;;;;5076555;28;19920;-22
2023/12/20 03:11:56;;;;;;;;;;;;;;;;;;5075167;28;19909;-21
2023/12/20 03:14:22;;;;;;;;;;;;;;;;;;5075912;28;19934;-21
2023/12/20 03:16:48;;;;;;;;;;;;;;;;;;5076344;28;19931;-28
2023/12/20 03:19:14;;;;;;;;;;;;;;;;;;5076047;28;19909;-19
2023/12/20 03:21:40;;;;;;;;;;;;;;;;;;5076285;28;20011;-20
2023/12/20 03:24:06;;;;;;;;;;;;;;;;;;5076658;28;19920;-21
2023/12/20 03:26:32;;;;;;;;;;;;;;;;;;5075962;28;19908;-22
2023/12/20 03:28:58;;;;;;;;;;;;;;;;;;5075024;28;19919;-21
2023/12/20 03:31:24;;;;;;;;;;;;;;;;;;5075925;28;19969;-20
2023/12/20 03:33:52;;;;;;;;;;;;;;;;;;5075777;28;20327;-19
2023/12/20 03:36:18;;;;;;;;;;;;;;;;;;5076001;28;19912;-20
2023/12/20 03:38:44;;;;;;;;;;;;;;;;;;5075741;28;19965;-21
2023/12/20 03:41:09;;;;;;;;;;;;;;;;;;5075751;28;19916;-19
2023/12/20 03:43:35;;;;;;;;;;;;;;;;;;5074589;28;19908;-22
2023/12/20 03:46:03;;;;;;;;;;;;;;;;;;5075609;28;19908;-22
2023/12/20 03:48:29;;;;;;;;;;;;;;;;;;5074583;28;20298;-22
2023/12/20 03:50:55;;;;;;;;;;;;;;;;;;5075565;28;19970;-21
2023/12/20 03:53:21;;;;;;;;;;;;;;;;;;5075406;28;19908;-22
2023/12/20 03:55:47;;;;;;;;;;;;;;;;;;5075936;28;20492;-22
2023/12/20 03:58:13;;;;;;;;;;;;;;;;;;5075248;28;19912;-20
2023/12/20 04:00:39;;;;;;;;;;;;;;;;;;5075276;28;19909;-21
2023/12/20 04:03:05;;;;;;;;;;;;;;;;;;5075111;28;19978;-21
2023/12/20 04:05:31;;;;;;;;;;;;;;;;;;5075293;28;20420;-21
2023/12/20 04:07:57;;;;;;;;;;;;;;;;;;5075230;28;19920;-21
2023/12/20 04:10:23;;;;;;;;;;;;;;;;;;5075290;28;20259;-22
2023/12/20 04:12:49;;;;;;;;;;;;;;;;;;5075126;28;19999;-21
2023/12/20 04:15:15;;;;;;;;;;;;;;;;;;5075364;28;19908;-19
2023/12/20 04:17:41;;;;;;;;;;;;;;;;;;5075038;28;19913;-21
2023/12/20 04:20:07;;;;;;;;;;;;;;;;;;5075002;28;19919;-22
2023/12/20 04:22:33;;;;;;;;;;;;;;;;;;5074996;28;19916;-21
2023/12/20 04:24:59;;;;;;;;;;;;;;;;;;5074571;28;20339;-21
2023/12/20 04:27:25;;;;;;;;;;;;;;;;;;5075230;28;20347;-22
2023/12/20 04:29:51;;;;;;;;;;;;;;;;;;5074924;28;19909;-20
2023/12/20 04:32:17;;;;;;;;;;;;;;;;;;5074991;28;20350;-19
2023/12/20 04:34:42;;;;;;;;;;;;;;;;;;5074812;28;20239;-21
2023/12/20 04:37:08;;;;;;;;;;;;;;;;;;5075423;28;19912;-23
2023/12/20 04:39:34;;;;;;;;;;;;;;;;;;5074625;28;19999;-23
2023/12/20 04:42:00;;;;;;;;;;;;;;;;;;5074841;28;19910;-22
2023/12/20 04:44:26;;;;;;;;;;;;;;;;;;5074900;28;20450;-19
2023/12/20 04:46:52;;;;;;;;;;;;;;;;;;5073675;28;19908;-22
2023/12/20 04:49:18;;;;;;;;;;;;;;;;;;5074649;28;20339;-23
2023/12/20 04:51:44;;;;;;;;;;;;;;;;;;5074595;28;19920;-21
2023/12/20 04:54:10;;;;;;;;;;;;;;;;;;5074404;28;19951;-20
2023/12/20 04:56:36;;;;;;;;;;;;;;;;;;5074436;28;20025;-20
2023/12/20 04:59:02;;;;;;;;;;;;;;;;;;5074760;28;19909;-22
2023/12/20 05:01:28;;;;;;;;;;;;;;;;;;5074559;28;19959;-21
2023/12/20 05:03:54;;;;;;;;;;;;;;;;;;5074220;28;20359;-21
2023/12/20 05:06:20;;;;;;;;;;;;;;;;;;5074385;28;19939;-21
2023/12/20 05:08:46;;;;;;;;;;;;;;;;;;5074700;28;19913;-21
2023/12/20 05:11:14;;;;;;;;;;;;;;;;;;5074209;28;19908;-19
2023/12/20 05:13:40;;;;;;;;;;;;;;;;;;5074272;28;19940;-20
2023/12/20 05:16:06;;;;;;;;;;;;;;;;;;5074293;28;19919;-21
2023/12/20 05:18:32;;;;;;;;;;;;;;;;;;5074324;28;20339;-22
2023/12/20 05:20:58;;;;;;;;;;;;;;;;;;5073150;28;19912;-22
2023/12/20 05:23:24;;;;;;;;;;;;;;;;;;5072943;28;19909;-22
2023/12/20 05:25:50;;;;;;;;;;;;;;;;;;5072807;28;19909;-21
2023/12/20 05:28:15;;;;;;;;;;;;;;;;;;5074013;28;19908;-20
2023/12/20 05:30:41;;;;;;;;;;;;;;;;;;5074217;28;19955;-21
2023/12/20 05:33:07;;;;;;;;;;;;;;;;;;5074024;28;19912;-21
2023/12/20 05:35:34;;;;;;;;;;;;;;;;;;5074082;28;19939;-22
2023/12/20 05:37:59;;;;;;;;;;;;;;;;;;5075356;28;19913;-21
2023/12/20 05:40:25;;;;;;;;;;;;;;;;;;5077474;28;19916;-21
2023/12/20 05:42:51;;;;;;;;;;;;;;;;;;5077577;28;19908;-20
2023/12/20 05:45:17;;;;;;;;;;;;;;;;;;5076418;28;19912;-20
2023/12/20 05:47:43;;;;;;;;;;;;;;;;;;5076428;28;19909;-19
2023/12/20 05:50:10;;;;;;;;;;;;;;;;;;5077358;28;20378;-21
2023/12/20 05:52:36;;;;;;;;;;;;;;;;;;5077297;28;19999;-23
2023/12/20 05:55:02;;;;;;;;;;;;;;;;;;5077285;28;20379;-20
2023/12/20 05:57:28;;;;;;;;;;;;;;;;;;5077060;28;19974;-21
2023/12/20 05:59:54;;;;;;;;;;;;;;;;;;5077169;28;19908;-21
2023/12/20 06:02:20;;;;;;;;;;;;;;;;;;5077069;28;19913;-20
2023/12/20 06:04:46;;;;;;;;;;;;;;;;;;5076944;28;19921;-23
2023/12/20 06:07:12;;;;;;;;;;;;;;;;;;5077087;28;19908;-21
2023/12/20 06:09:38;;;;;;;;;;;;;;;;;;5077123;28;19912;-23
2023/12/20 06:12:04;;;;;;;;;;;;;;;;;;5076871;28;19947;-23
2023/12/20 06:14:30;;;;;;;;;;;;;;;;;;5077166;28;19908;-21
2023/12/20 06:16:56;;;;;;;;;;;;;;;;;;5077160;28;19912;-21
2023/12/20 06:19:22;;;;;;;;;;;;;;;;;;5077009;28;20353;-22
2023/12/20 06:21:48;;;;;;;;;;;;;;;;;;5076816;28;19939;-20
2023/12/20 06:24:14;;;;;;;;;;;;;;;;;;5076652;28;19916;-20
2023/12/20 06:26:40;;;;;;;;;;;;;;;;;;5076764;28;19908;-23
2023/12/20 06:29:06;;;;;;;;;;;;;;;;;;5076674;28;19919;-22
2023/12/20 06:31:32;;;;;;;;;;;;;;;;;;5076707;28;19908;-22
2023/12/20 06:33:59;;;;;;;;;;;;;;;;;;5076646;28;19909;-21
2023/12/20 06:36:25;;;;;;;;;;;;;;;;;;5076485;28;19977;-21
2023/12/20 06:38:51;;;;;;;;;;;;;;;;;;5076407;28;20024;-21
2023/12/20 06:41:17;;;;;;;;;;;;;;;;;;5076514;28;20482;-20
2023/12/20 06:43:43;;;;;;;;;;;;;;;;;;5076853;28;20038;-21
2023/12/20 06:46:09;;;;;;;;;;;;;;;;;;5076391;28;20137;-23
2023/12/20 06:48:35;;;;;;;;;;;;;;;;;;5074792;28;20347;-21
2023/12/20 06:51:04;;;;;;;;;;;;;;;;;;5076467;28;19909;-23
2023/12/20 06:53:30;;;;;;;;;;;;;;;;;;5075222;28;19912;-22
2023/12/20 06:55:56;;;;;;;;;;;;;;;;;;5075860;28;19939;-23
2023/12/20 06:58:22;;;;;;;;;;;;;;;;;;5076222;28;20243;-22
2023/12/20 07:00:48;;;;;;;;;;;;;;;;;;5075823;28;19919;-21
2023/12/20 07:03:14;;;;;;;;;;;;;;;;;;5075456;28;20413;-21
2023/12/20 07:05:40;;;;;;;;;;;;;;;;;;5076180;28;19934;-19
2023/12/20 07:08:06;;;;;;;;;;;;;;;;;;5076028;28;19962;-21
2023/12/20 07:10:32;;;;;;;;;;;;;;;;;;5076029;28;20328;-23
2023/12/20 07:12:58;;;;;;;;;;;;;;;;;;5075362;28;19909;-23
2023/12/20 07:15:24;;;;;;;;;;;;;;;;;;5075227;28;19909;-22
2023/12/20 07:17:50;;;;;;;;;;;;;;;;;;5074914;28;19920;-20
2023/12/20 07:20:17;;;;;;;;;;;;;;;;;;5075024;28;19918;-19
2023/12/20 07:22:43;;;;;;;;;;;;;;;;;;5075273;28;20071;-21
2023/12/20 07:25:09;;;;;;;;;;;;;;;;;;5075367;28;19919;-22
2023/12/20 07:27:35;;;;;;;;;;;;;;;;;;5073973;28;19931;-23
2023/12/20 07:30:01;;;;;;;;;;;;;;;;;;5075007;28;19916;-23
2023/12/20 07:32:27;;;;;;;;;;;;;;;;;;5074958;28;19913;-21
2023/12/20 07:34:53;;;;;;;;;;;;;;;;;;5075118;28;19908;-21
2023/12/20 07:37:20;;;;;;;;;;;;;;;;;;5074872;28;20347;-20
2023/12/20 07:39:46;;;;;;;;;;;;;;;;;;5073990;28;19998;-19
2023/12/20 07:42:12;;;;;;;;;;;;;;;;;;5074945;28;19940;-20
2023/12/20 07:44:38;;;;;;;;;;;;;;;;;;5075066;28;19915;-23
2023/12/20 07:47:04;;;;;;;;;;;;;;;;;;5075137;28;19908;-21
2023/12/20 07:49:30;;;;;;;;;;;;;;;;;;5075301;28;19958;-22
2023/12/20 07:51:56;;;;;;;;;;;;;;;;;;5073853;28;19920;-21
2023/12/20 07:54:22;;;;;;;;;;;;;;;;;;5075358;28;19919;-21
2023/12/20 07:56:48;;;;;;;;;;;;;;;;;;5074446;28;19909;-21
2023/12/20 07:59:14;;;;;;;;;;;;;;;;;;5073876;28;20469;-23
2023/12/20 08:01:40;;;;;;;;;;;;;;;;;;5073037;28;20021;-23
2023/12/20 08:04:06;;;;;;;;;;;;;;;;;;5073631;28;20324;-22
2023/12/20 08:06:32;;;;;;;;;;;;;;;;;;5075152;28;19995;-20
2023/12/20 08:08:58;;;;;;;;;;;;;;;;;;5074695;28;19916;-20
2023/12/20 08:11:24;;;;;;;;;;;;;;;;;;5074766;28;20243;-20
2023/12/20 08:13:51;;;;;;;;;;;;;;;;;;5074292;28;19908;-22
2023/12/20 08:16:17;;;;;;;;;;;;;;;;;;5074684;28;20000;-23
2023/12/20 08:18:43;;;;;;;;;;;;;;;;;;5074575;28;20019;-24
2023/12/20 08:21:09;;;;;;;;;;;;;;;;;;5073146;28;19912;-21
2023/12/20 08:23:35;;;;;;;;;;;;;;;;;;5074393;28;20393;-22
2023/12/20 08:26:01;;;;;;;;;;;;;;;;;;5074240;28;19974;-20
2023/12/20 08:28:27;;;;;;;;;;;;;;;;;;5074381;28;19908;-19
2023/12/20 08:30:53;;;;;;;;;;;;;;;;;;5074237;28;19976;-21
2023/12/20 08:33:19;;;;;;;;;;;;;;;;;;5074309;28;19908;-24
2023/12/20 08:35:45;;;;;;;;;;;;;;;;;;5074194;28;19991;-22
2023/12/20 08:38:11;;;;;;;;;;;;;;;;;;5074023;28;20058;-22
2023/12/20 08:40:37;;;;;;;;;;;;;;;;;;5074466;28;19908;-21
2023/12/20 08:43:03;;;;;;;;;;;;;;;;;;5074723;28;19908;-20
2023/12/20 08:45:29;;;;;;;;;;;;;;;;;;5074310;28;20012;-20
2023/12/20 08:47:55;;;;;;;;;;;;;;;;;;5073933;28;19915;-22
2023/12/20 08:50:21;;;;;;;;;;;;;;;;;;5072886;28;19908;-22
2023/12/20 08:52:47;;;;;;;;;;;;;;;;;;5074180;28;19943;-23
2023/12/20 08:55:14;;;;;;;;;;;;;;;;;;5073847;28;20389;-20
2023/12/20 08:57:40;;;;;;;;;;;;;;;;;;5074182;28;20354;-22
2023/12/20 09:00:07;;;;;;;;;;;;;;;;;;5073008;28;19919;-21
2023/12/20 09:02:35;;;;;;;;;;;;;;;;;;5073683;28;19908;-21
2023/12/20 09:05:02;;;;;;;;;;;;;;;;;;5073631;28;19935;-22
2023/12/20 09:07:30;;;;;;;;;;;;;;;;;;5073802;28;19931;-21
2023/12/20 09:09:56;;;;;;;;;;;;;;;;;;5074095;28;20063;-21
2023/12/20 09:12:22;;;;;;;;;;;;;;;;;;5075936;28;20316;-23
2023/12/20 09:14:48;;;;;;;;;;;;;;;;;;5078076;28;19935;-22
2023/12/20 09:17:14;;;;;;;;;;;;;;;;;;5078060;28;19952;-21
2023/12/20 09:19:40;;;;;;;;;;;;;;;;;;5077910;28;20361;-20
2023/12/20 09:22:06;;;;;;;;;;;;;;;;;;5077931;28;19909;-22
2023/12/20 09:24:32;;;;;;;;;;;;;;;;;;5078157;28;19908;-22
2023/12/20 09:26:58;;;;;;;;;;;;;;;;;;5078003;28;20339;-24
2023/12/20 09:29:24;;;;;;;;;;;;;;;;;;5078081;28;19908;-22
2023/12/20 09:31:50;;;;;;;;;;;;;;;;;;5076733;28;19913;-21
2023/12/20 09:34:19;;;;;;;;;;;;;;;;;;5076666;28;19962;-21
2023/12/20 09:36:46;;;;;;;;;;;;;;;;;;5077625;28;19940;-21
2023/12/20 09:39:12;;;;;;;;;;;;;;;;;;5077456;28;19908;-22
2023/12/20 09:41:38;;;;;;;;;;;;;;;;;;5077298;28;19909;-22
2023/12/20 09:44:04;;;;;;;;;;;;;;;;;;5076700;28;20021;-22
2023/12/20 09:46:31;;;;;;;;;;;;;;;;;;5077080;28;19920;-21
2023/12/20 09:48:58;;;;;;;;;;;;;;;;;;5077088;28;20052;-21
2023/12/20 09:51:24;;;;;;;;;;;;;;;;;;5077120;28;20354;-21
2023/12/20 09:53:49;;;;;;;;;;;;;;;;;;5075754;28;19991;-21
2023/12/20 09:56:16;;;;;;;;;;;;;;;;;;5076956;28;20011;-21
2023/12/20 09:58:42;;;;;;;;;;;;;;;;;;5076992;28;19912;-23
2023/12/20 10:01:08;;;;;;;;;;;;;;;;;;5076652;28;19912;-23
2023/12/20 10:03:33;;;;;;;;;;;;;;;;;;5076543;28;19931;-22
2023/12/20 10:06:00;;;;;;;;;;;;;;;;;;5076889;28;19909;-20
2023/12/20 10:08:26;;;;;;;;;;;;;;;;;;5075632;28;19908;-21
2023/12/20 10:10:52;;;;;;;;;;;;;;;;;;5076542;28;19934;-19
2023/12/20 10:13:18;;;;;;;;;;;;;;;;;;5076910;28;19995;-21
2023/12/20 10:15:44;;;;;;;;;;;;;;;;;;5075691;28;19942;-22
2023/12/20 10:18:10;;;;;;;;;;;;;;;;;;5075432;28;20007;-21
2023/12/20 10:20:36;;;;;;;;;;;;;;;;;;5076847;28;20362;-21
2023/12/20 10:23:02;;;;;;;;;;;;;;;;;;5076146;28;19987;-22
2023/12/20 10:25:28;;;;;;;;;;;;;;;;;;5076549;28;19908;-21
2023/12/20 10:27:54;;;;;;;;;;;;;;;;;;5076797;28;19908;-21
2023/12/20 10:30:21;;;;;;;;;;;;;;;;;;5075920;28;20019;-22
2023/12/20 10:32:47;;;;;;;;;;;;;;;;;;5076850;28;20003;-22
2023/12/20 10:35:13;;;;;;;;;;;;;;;;;;5075834;28;20346;-21
2023/12/20 10:37:39;;;;;;;;;;;;;;;;;;5076718;28;19912;-23
2023/12/20 10:40:06;;;;;;;;;;;;;;;;;;5075683;28;19915;-21
2023/12/20 10:42:33;;;;;;;;;;;;;;;;;;5076752;28;20278;-20
2023/12/20 10:44:59;;;;;;;;;;;;;;;;;;5076726;28;19909;-21
2023/12/20 10:47:25;;;;;;;;;;;;;;;;;;5076349;28;19995;-22
2023/12/20 10:49:51;;;;;;;;;;;;;;;;;;5075412;28;19909;-22
2023/12/20 10:52:17;;;;;;;;;;;;;;;;;;5076315;28;19915;-22
2023/12/20 10:54:43;;;;;;;;;;;;;;;;;;5076489;28;19908;-21
2023/12/20 10:57:09;;;;;;;;;;;;;;;;;;5076431;28;20370;-21
2023/12/20 10:59:35;;;;;;;;;;;;;;;;;;5075037;28;19909;-20
2023/12/20 11:02:02;;;;;;;;;;;;;;;;;;5076084;28;19909;-21
2023/12/20 11:04:28;;;;;;;;;;;;;;;;;;5075751;28;20032;-21
2023/12/20 11:06:54;;;;;;;;;;;;;;;;;;5076256;28;19987;-20
2023/12/20 11:09:20;;;;;;;;;;;;;;;;;;5075046;28;20249;-22
2023/12/20 11:11:46;;;;;;;;;;;;;;;;;;5076291;28;20000;-21
2023/12/20 11:14:12;;;;;;;;;;;;;;;;;;5074969;28;19909;-23
2023/12/20 11:16:38;;;;;;;;;;;;;;;;;;5075856;28;19920;-22
2023/12/20 11:19:04;;;;;;;;;;;;;;;;;;5075934;28;19920;-20
2023/12/20 11:21:30;;;;;;;;;;;;;;;;;;5075580;28;20336;-22
2023/12/20 11:23:56;;;;;;;;;;;;;;;;;;5075482;28;19912;-22
2023/12/20 11:26:22;;;;;;;;;;;;;;;;;;5075532;28;19955;-22
2023/12/20 11:28:48;;;;;;;;;;;;;;;;;;5075376;28;20308;-21
2023/12/20 11:31:14;;;;;;;;;;;;;;;;;;5075331;28;19908;-22
2023/12/20 11:33:40;;;;;;;;;;;;;;;;;;5074357;28;20363;-20
2023/12/20 11:36:06;;;;;;;;;;;;;;;;;;5075421;28;20000;-21
2023/12/20 11:38:31;;;;;;;;;;;;;;;;;;5075820;28;19913;-21
2023/12/20 11:40:59;;;;;;;;;;;;;;;;;;5074192;28;19954;-21
2023/12/20 11:43:24;;;;;;;;;;;;;;;;;;5073980;28;19908;-22
2023/12/20 11:45:53;;;;;;;;;;;;;;;;;;5074433;28;20268;-22
2023/12/20 11:48:19;;;;;;;;;;;;;;;;;;5075051;28;19973;-21
2023/12/20 11:50:45;;;;;;;;;;;;;;;;;;5075067;28;20328;-21
2023/12/20 11:53:11;;;;;;;;;;;;;;;;;;5074887;28;19992;-21
2023/12/20 11:55:37;;;;;;;;;;;;;;;;;;5074972;28;19908;-21
2023/12/20 11:58:03;;;;;;;;;;;;;;;;;;5074385;28;20007;-20
2023/12/20 12:00:29;;;;;;;;;;;;;;;;;;5074829;28;19909;-20
2023/12/20 12:02:55;;;;;;;;;;;;;;;;;;5074268;28;19942;-21
2023/12/20 12:05:21;;;;;;;;;;;;;;;;;;5074805;28;19991;-22
2023/12/20 12:07:48;;;;;;;;;;;;;;;;;;5074353;28;19908;-23
2023/12/20 12:10:14;;;;;;;;;;;;;;;;;;5074462;28;19966;-22
2023/12/20 12:12:40;;;;;;;;;;;;;;;;;;5073244;28;19963;-21
2023/12/20 12:15:06;;;;;;;;;;;;;;;;;;5074435;28;19908;-21
2023/12/20 12:17:32;;;;;;;;;;;;;;;;;;5074264;28;19919;-21
2023/12/20 12:19:58;;;;;;;;;;;;;;;;;;5074472;28;20312;-23
2023/12/20 12:22:26;;;;;;;;;;;;;;;;;;5073107;28;19908;-21
2023/12/20 12:24:52;;;;;;;;;;;;;;;;;;5074281;28;20318;-20
2023/12/20 12:27:18;;;;;;;;;;;;;;;;;;5074493;28;19959;-21
2023/12/20 12:29:44;;;;;;;;;;;;;;;;;;5074466;28;20006;-20
2023/12/20 12:32:10;;;;;;;;;;;;;;;;;;5074617;28;19908;-21
2023/12/20 12:34:36;;;;;;;;;;;;;;;;;;5074256;28;19999;-21
2023/12/20 12:37:02;;;;;;;;;;;;;;;;;;5074306;28;19971;-20
2023/12/20 12:39:29;;;;;;;;;;;;;;;;;;5074523;28;20395;-22
2023/12/20 12:41:55;;;;;;;;;;;;;;;;;;5074268;28;20243;-20
2023/12/20 12:44:23;;;;;;;;;;;;;;;;;;5074542;28;19915;-22
2023/12/20 12:46:53;;;;;;;;;;;;;;;;;;5073865;28;19908;-20
2023/12/20 12:49:19;;;;;;;;;;;;;;;;;;5074244;28;20324;-23
2023/12/20 12:51:45;;;;;;;;;;;;;;;;;;5074391;28;19958;-22
2023/12/20 12:54:13;;;;;;;;;;;;;;;;;;5072889;28;20236;-21
2023/12/20 12:56:39;;;;;;;;;;;;;;;;;;5074199;28;19908;-21
2023/12/20 12:59:05;;;;;;;;;;;;;;;;;;5074152;28;20222;-20
2023/12/20 13:01:31;;;;;;;;;;;;;;;;;;5074594;28;20098;-20
2023/12/20 13:03:57;;;;;;;;;;;;;;;;;;5073703;28;19951;-20
2023/12/20 13:06:23;;;;;;;;;;;;;;;;;;5073980;28;19908;-21
2023/12/20 13:08:49;;;;;;;;;;;;;;;;;;5074176;28;19915;-22
2023/12/20 13:11:15;;;;;;;;;;;;;;;;;;5073865;28;19927;-21
2023/12/20 13:13:41;;;;;;;;;;;;;;;;;;5073905;28;19962;-21
2023/12/20 13:16:07;;;;;;;;;;;;;;;;;;5074029;28;19915;-21
2023/12/20 13:18:33;;;;;;;;;;;;;;;;;;5072639;28;19963;-21
2023/12/20 13:20:59;;;;;;;;;;;;;;;;;;5073726;28;19909;-20
2023/12/20 13:23:25;;;;;;;;;;;;;;;;;;5073500;28;19915;-21
2023/12/20 13:25:51;;;;;;;;;;;;;;;;;;5073671;28;19925;-21
2023/12/20 13:28:17;;;;;;;;;;;;;;;;;;5073623;28;20032;-22
2023/12/20 13:30:43;;;;;;;;;;;;;;;;;;5073727;28;19987;-21
2023/12/20 13:33:10;;;;;;;;;;;;;;;;;;5073324;28;19940;-22
2023/12/20 13:35:36;;;;;;;;;;;;;;;;;;5073435;28;19966;-21
2023/12/20 13:38:02;;;;;;;;;;;;;;;;;;5073508;28;19930;-20
2023/12/20 13:40:28;;;;;;;;;;;;;;;;;;5073712;28;19970;-22
2023/12/20 13:42:54;;;;;;;;;;;;;;;;;;5073465;28;19912;-22
2023/12/20 13:45:20;;;;;;;;;;;;;;;;;;5073361;28;19908;-22
2023/12/20 13:47:46;;;;;;;;;;;;;;;;;;5072725;28;20458;-23
2023/12/20 13:50:12;;;;;;;;;;;;;;;;;;5073625;28;20010;-21
2023/12/20 13:52:38;;;;;;;;;;;;;;;;;;5072391;28;19919;-28
2023/12/20 13:55:07;;;;;;;;;;;;;;;;;;5073477;28;19908;-20
2023/12/20 13:57:33;;;;;;;;;;;;;;;;;;5072920;28;19931;-21
2023/12/20 13:59:59;;;;;;;;;;;;;;;;;;5077323;28;19908;-22
2023/12/20 14:02:26;;;;;;;;;;;;;;;;;;5076887;28;19919;-21
2023/12/20 14:04:52;;;;;;;;;;;;;;;;;;5077428;28;19920;-28
2023/12/20 14:07:18;;;;;;;;;;;;;;;;;;5077315;28;19913;-21
2023/12/20 14:09:45;;;;;;;;;;;;;;;;;;5076071;28;19919;-20
2023/12/20 14:12:11;;;;;;;;;;;;;;;;;;5075691;28;20212;-20
2023/12/20 14:14:37;;;;;;;;;;;;;;;;;;5076603;28;19966;-21
2023/12/20 14:17:03;;;;;;;;;;;;;;;;;;5076799;28;20350;-24
2023/12/20 14:19:29;;;;;;;;;;;;;;;;;;5076777;28;19919;-21
2023/12/20 14:21:55;;;;;;;;;;;;;;;;;;5076455;28;19909;-22
2023/12/20 14:24:21;;;;;;;;;;;;;;;;;;5076854;28;19909;-21
2023/12/20 14:26:47;;;;;;;;;;;;;;;;;;5076693;28;20011;-21
2023/12/20 14:29:13;;;;;;;;;;;;;;;;;;5075466;28;19920;-20
2023/12/20 14:31:40;;;;;;;;;;;;;;;;;;5075557;28;19908;-23
2023/12/20 14:34:06;;;;;;;;;;;;;;;;;;5075669;28;19920;-21
2023/12/20 14:36:32;;;;;;;;;;;;;;;;;;5076497;28;19999;-22
2023/12/20 14:38:59;;;;;;;;;;;;;;;;;;5076415;28;20058;-21
2023/12/20 14:41:25;;;;;;;;;;;;;;;;;;5075356;28;20357;-22
2023/12/20 14:43:54;;;;;;;;;;;;;;;;;;5075608;28;19999;-21
2023/12/20 14:46:20;;;;;;;;;;;;;;;;;;5075484;28;19919;-22
2023/12/20 14:48:46;;;;;;;;;;;;;;;;;;5076509;28;20015;-21
2023/12/20 14:51:14;;;;;;;;;;;;;;;;;;5076190;28;19908;-21
2023/12/20 14:53:42;;;;;;;;;;;;;;;;;;5076304;28;19958;-22
2023/12/20 14:56:08;;;;;;;;;;;;;;;;;;5076111;28;20347;-21
2023/12/20 14:58:34;;;;;;;;;;;;;;;;;;5076120;28;19916;-22
2023/12/20 15:01:00;;;;;;;;;;;;;;;;;;5075164;28;20022;-21
2023/12/20 15:03:26;;;;;;;;;;;;;;;;;;5075841;28;19921;-20
2023/12/20 15:05:52;;;;;;;;;;;;;;;;;;5075958;28;19983;-21
2023/12/20 15:08:18;;;;;;;;;;;;;;;;;;5074774;28;20015;-20
2023/12/20 15:10:43;;;;;;;;;;;;;;;;;;5075539;28;19915;-23
2023/12/20 15:13:09;;;;;;;;;;;;;;;;;;5075861;28;19912;-22
2023/12/20 15:15:37;;;;;;;;;;;;;;;;;;5075808;28;19908;-23
2023/12/20 15:18:03;;;;;;;;;;;;;;;;;;5074639;28;19970;-22
2023/12/20 15:20:29;;;;;;;;;;;;;;;;;;5074725;28;20327;-21
2023/12/20 15:22:58;;;;;;;;;;;;;;;;;;5075862;28;20353;-20
2023/12/20 15:25:24;;;;;;;;;;;;;;;;;;5075607;28;20011;-22
2023/12/20 15:27:53;;;;;;;;;;;;;;;;;;5075765;28;19948;-21
2023/12/20 15:30:19;;;;;;;;;;;;;;;;;;5075566;28;20390;-30
2023/12/20 15:32:45;;;;;;;;;;;;;;;;;;5075930;28;19908;-20
2023/12/20 15:35:11;;;;;;;;;;;;;;;;;;5075653;28;19954;-22
2023/12/20 15:37:37;;;;;;;;;;;;;;;;;;5075756;28;20280;-21
2023/12/20 15:40:03;;;;;;;;;;;;;;;;;;5075435;28;20252;-20
2023/12/20 15:42:30;;;;;;;;;;;;;;;;;;5075011;28;19931;-21
2023/12/20 15:44:56;;;;;;;;;;;;;;;;;;5074884;28;19920;-22
2023/12/20 15:47:23;;;;;;;;;;;;;;;;;;5073945;28;20336;-20
2023/12/20 15:49:49;;;;;;;;;;;;;;;;;;5073522;28;20209;-21
2023/12/20 15:52:15;;;;;;;;;;;;;;;;;;5073292;28;19908;-20
2023/12/20 15:54:41;;;;;;;;;;;;;;;;;;5073507;28;19919;-20
2023/12/20 15:57:07;;;;;;;;;;;;;;;;;;5075166;28;20290;-22
2023/12/20 15:59:33;;;;;;;;;;;;;;;;;;5075013;28;19908;-22
2023/12/20 16:01:59;;;;;;;;;;;;;;;;;;5074736;28;19940;-22
2023/12/20 16:04:25;;;;;;;;;;;;;;;;;;5074606;28;19994;-21
2023/12/20 16:06:52;;;;;;;;;;;;;;;;;;5074952;28;20331;-20
2023/12/20 16:09:18;;;;;;;;;;;;;;;;;;5073627;28;19913;-21
2023/12/20 16:11:44;;;;;;;;;;;;;;;;;;5073517;28;19999;-21
2023/12/20 16:14:15;;;;;;;;;;;;;;;;;;5074027;28;19909;-21
2023/12/20 16:16:41;;;;;;;;;;;;;;;;;;5074133;28;19955;-22
2023/12/20 16:19:07;;;;;;;;;;;;;;;;;;5073545;28;19951;-23
2023/12/20 16:21:33;;;;;;;;;;;;;;;;;;5072792;28;20297;-22
2023/12/20 16:23:59;;;;;;;;;;;;;;;;;;5073372;28;20211;-21
2023/12/20 16:26:25;;;;;;;;;;;;;;;;;;5073428;28;20001;-20
2023/12/20 16:28:51;;;;;;;;;;;;;;;;;;5073303;28;20332;-21
2023/12/20 16:31:17;;;;;;;;;;;;;;;;;;5073196;28;19967;-20
2023/12/20 16:33:43;;;;;;;;;;;;;;;;;;5073332;28;19965;-21
2023/12/20 16:36:09;;;;;;;;;;;;;;;;;;5073363;28;19908;-23
2023/12/20 16:38:35;;;;;;;;;;;;;;;;;;5073009;28;20336;-21